createdAt,value
2023-05-11T00:01:39.833Z,0.80
2023-05-11T00:04:41.524Z,0.80
2023-05-11T00:07:43.301Z,0.80
2023-05-11T00:10:48.475Z,0.77
2023-05-11T00:13:50.192Z,0.60
2023-05-11T00:16:51.847Z,0.90
2023-05-11T00:19:53.537Z,0.70
2023-05-11T00:22:55.193Z,1.00
2023-05-11T00:25:58.242Z,0.70
2023-05-11T00:28:59.902Z,0.50
2023-05-11T00:32:01.577Z,0.88
2023-05-11T00:35:03.321Z,0.70
2023-05-11T00:38:05.002Z,0.70
2023-05-11T00:41:08.458Z,0.50
2023-05-11T00:44:10.324Z,0.77
2023-05-11T00:47:12.091Z,0.50
2023-05-11T00:50:14.068Z,0.60
2023-05-11T00:53:15.846Z,0.60
2023-05-11T00:56:18.955Z,0.47
2023-05-11T00:59:20.717Z,0.43
2023-05-11T01:02:22.589Z,0.50
2023-05-11T01:05:30.263Z,0.50
2023-05-11T01:08:39.061Z,0.68
2023-05-11T01:11:49.085Z,0.60
2023-05-11T01:14:58.036Z,0.40
2023-05-11T01:18:09.095Z,0.52
2023-05-11T01:21:14.243Z,0.40
2023-05-11T01:24:29.288Z,0.43
2023-05-11T01:28:24.700Z,0.40
2023-05-11T01:31:31.003Z,0.60
2023-05-11T01:34:39.564Z,0.40
2023-05-11T01:37:46.127Z,0.30
2023-05-11T01:40:54.317Z,0.40
2023-05-11T01:44:00.424Z,0.40
2023-05-11T01:47:04.685Z,0.40
2023-05-11T01:50:08.671Z,0.60
2023-05-11T01:53:12.256Z,0.45
2023-05-11T01:56:15.290Z,0.22
2023-05-11T01:59:17.839Z,0.40
2023-05-11T02:02:21.463Z,0.30
2023-05-11T02:05:24.987Z,0.38
2023-05-11T02:08:29.152Z,0.30
2023-05-11T02:11:32.533Z,0.50
2023-05-11T02:14:35.668Z,0.47
2023-05-11T02:17:39.450Z,0.30
2023-05-11T02:20:43.954Z,0.40
2023-05-11T02:23:47.995Z,0.55
2023-05-11T02:26:49.844Z,0.40
2023-05-11T02:29:51.585Z,0.30
2023-05-11T02:32:57.351Z,0.30
2023-05-11T02:36:00.229Z,0.50
2023-05-11T02:39:06.132Z,0.30
2023-05-11T02:42:13.852Z,0.40
2023-05-11T02:45:18.708Z,0.22
2023-05-11T02:48:26.529Z,0.40
2023-05-11T02:51:32.729Z,0.30
2023-05-11T02:54:35.253Z,0.70
2023-05-11T02:57:37.767Z,0.30
2023-05-11T03:00:39.835Z,0.38
2023-05-11T03:03:43.038Z,0.30
2023-05-11T03:06:44.879Z,0.38
2023-05-11T03:09:46.711Z,0.43
2023-05-11T03:12:48.454Z,0.40
2023-05-11T03:15:51.344Z,0.38
2023-05-11T03:18:54.902Z,0.40
2023-05-11T03:21:58.800Z,0.40
2023-05-11T03:25:02.591Z,0.40
2023-05-11T03:28:06.407Z,0.60
2023-05-11T03:31:08.208Z,0.40
2023-05-11T03:34:11.338Z,0.50
2023-05-11T03:37:14.658Z,0.60
2023-05-11T03:40:19.682Z,0.50
2023-05-11T03:43:22.312Z,0.38
2023-05-11T03:46:25.398Z,0.40
2023-05-11T03:49:29.490Z,0.40
2023-05-11T03:52:31.663Z,0.43
2023-05-11T03:55:33.480Z,0.30
2023-05-11T03:58:38.832Z,0.60
2023-05-11T04:01:42.757Z,0.50
2023-05-11T04:04:45.905Z,0.30
2023-05-11T04:07:47.697Z,0.75
2023-05-11T04:10:49.343Z,0.60
2023-05-11T04:13:51.010Z,0.50
2023-05-11T04:16:52.817Z,0.70
2023-05-11T04:19:55.955Z,0.60
2023-05-11T04:22:57.702Z,0.47
2023-05-11T04:25:59.411Z,0.40
2023-05-11T04:29:01.045Z,0.70
2023-05-11T04:32:02.807Z,0.55
2023-05-11T04:35:06.252Z,0.80
2023-05-11T04:38:07.909Z,0.68
2023-05-11T04:41:09.580Z,0.80
2023-05-11T04:44:11.706Z,0.68
2023-05-11T04:47:14.275Z,0.50
2023-05-11T04:50:17.586Z,0.68
2023-05-11T04:53:19.444Z,0.50
2023-05-11T04:56:21.214Z,0.50
2023-05-11T04:59:23.035Z,0.20
2023-05-11T05:02:24.883Z,0.40
2023-05-11T05:05:28.073Z,0.32
2023-05-11T05:08:29.698Z,0.30
2023-05-11T05:11:31.405Z,0.47
2023-05-11T05:14:33.289Z,0.25
2023-05-11T05:17:35.058Z,0.40
2023-05-11T05:20:38.172Z,0.60
2023-05-11T05:23:39.808Z,0.90
2023-05-11T05:26:41.497Z,0.68
2023-05-11T05:29:43.185Z,0.90
2023-05-11T05:32:44.868Z,2.80
2023-05-11T05:35:47.941Z,2.50
2023-05-11T05:38:49.619Z,1.42
2023-05-11T05:41:52.000Z,0.90
2023-05-11T05:44:53.658Z,0.80
2023-05-11T05:47:55.409Z,0.70
2023-05-11T05:50:58.954Z,0.60
2023-05-11T05:54:00.735Z,0.80
2023-05-11T05:57:02.408Z,0.70
2023-05-11T06:00:04.845Z,0.80
2023-05-11T06:03:06.683Z,0.70
2023-05-11T06:06:09.726Z,0.60
2023-05-11T06:09:11.391Z,0.70
2023-05-11T06:12:13.060Z,0.80
2023-05-11T06:15:14.820Z,0.90
2023-05-11T06:18:16.543Z,0.60
2023-05-11T06:21:19.826Z,0.65
2023-05-11T06:24:21.519Z,0.60
2023-05-11T06:27:23.199Z,0.70
2023-05-11T06:30:24.835Z,0.60
2023-05-11T06:33:26.570Z,0.80
2023-05-11T06:36:29.606Z,0.50
2023-05-11T06:39:31.272Z,0.50
2023-05-11T06:42:32.920Z,0.60
2023-05-11T06:45:34.616Z,0.50
2023-05-11T06:48:36.329Z,0.50
2023-05-11T06:51:39.387Z,0.55
2023-05-11T06:54:41.119Z,0.70
2023-05-11T06:57:42.831Z,0.50
2023-05-11T07:00:44.528Z,0.70
2023-05-11T07:03:46.905Z,0.57
2023-05-11T07:06:49.944Z,0.60
2023-05-11T07:09:51.607Z,0.40
2023-05-11T07:12:53.612Z,0.40
2023-05-11T07:15:57.364Z,0.40
2023-05-11T07:18:59.492Z,0.50
2023-05-11T07:22:02.712Z,0.68
2023-05-11T07:25:04.804Z,0.50
2023-05-11T07:28:06.608Z,0.40
2023-05-11T07:31:08.317Z,1.42
2023-05-11T07:34:10.078Z,0.43
2023-05-11T07:37:13.116Z,0.40
2023-05-11T07:40:14.856Z,0.32
2023-05-11T07:43:16.564Z,0.43
2023-05-11T07:46:18.289Z,0.40
2023-05-11T07:49:25.495Z,0.75
2023-05-11T07:52:34.284Z,0.40
2023-05-11T07:55:35.998Z,0.47
2023-05-11T07:58:37.683Z,0.35
2023-05-11T08:01:39.483Z,0.50
2023-05-11T08:04:41.430Z,0.40
2023-05-11T08:07:44.572Z,0.40
2023-05-11T08:10:46.227Z,0.60
2023-05-11T08:13:47.940Z,0.50
2023-05-11T08:16:49.813Z,0.95
2023-05-11T08:19:51.526Z,0.40
2023-05-11T08:22:54.804Z,0.30
2023-05-11T08:25:56.650Z,0.57
2023-05-11T08:28:58.359Z,0.43
2023-05-11T08:32:00.161Z,0.30
2023-05-11T08:35:02.187Z,0.20
2023-05-11T08:38:05.457Z,0.20
2023-05-11T08:41:07.477Z,0.30
2023-05-11T08:44:10.614Z,0.60
2023-05-11T08:50:17.320Z,0.30
2023-05-11T08:53:20.483Z,0.57
2023-05-11T08:56:22.200Z,0.45
2023-05-11T08:59:25.780Z,0.10
2023-05-11T09:02:28.915Z,0.28
2023-05-11T09:05:31.858Z,0.30
2023-05-11T09:08:35.629Z,0.30
2023-05-11T09:11:37.732Z,0.50
2023-05-11T09:14:39.449Z,0.60
2023-05-11T09:17:41.164Z,0.50
2023-05-11T09:20:44.076Z,0.70
2023-05-11T09:23:49.224Z,0.40
2023-05-11T09:27:06.437Z,0.30
2023-05-11T09:30:12.709Z,0.40
2023-05-11T09:33:21.441Z,0.20
2023-05-11T09:36:23.642Z,0.20
2023-05-11T09:39:38.278Z,0.17
2023-05-11T09:42:45.731Z,0.30
2023-05-11T09:45:48.689Z,0.40
2023-05-11T09:48:58.385Z,0.60
2023-05-11T09:52:01.193Z,0.30
2023-05-11T09:55:10.617Z,0.30
2023-05-11T09:58:12.365Z,0.22
2023-05-11T10:01:14.247Z,0.20
2023-05-11T10:07:27.135Z,0.30
2023-05-11T10:10:31.167Z,0.30
2023-05-11T10:13:34.204Z,0.30
2023-05-11T10:16:36.044Z,0.60
2023-05-11T10:19:38.224Z,0.63
2023-05-11T10:22:40.092Z,0.90
2023-05-11T10:25:44.436Z,0.70
2023-05-11T10:28:46.196Z,0.90
2023-05-11T10:31:48.561Z,0.50
2023-05-11T10:34:50.371Z,0.57
2023-05-11T10:37:52.194Z,0.55
2023-05-11T10:41:06.846Z,0.40
2023-05-11T10:44:40.967Z,0.60
2023-05-11T10:48:12.678Z,0.52
2023-05-11T10:51:43.238Z,0.52
2023-05-11T10:58:07.238Z,0.47
2023-05-11T11:01:39.693Z,0.43
2023-05-11T11:04:43.243Z,0.55
2023-05-11T11:07:57.020Z,0.50
2023-05-11T11:10:58.739Z,0.60
2023-05-11T11:14:03.773Z,0.60
2023-05-11T11:17:25.230Z,0.77
2023-05-11T11:20:51.712Z,0.75
2023-05-11T11:23:53.412Z,0.82
2023-05-11T11:26:55.096Z,0.80
2023-05-11T11:30:18.219Z,0.68
2023-05-11T11:33:33.897Z,1.17
2023-05-11T11:37:01.122Z,1.10
2023-05-11T11:40:13.942Z,1.58
2023-05-11T11:43:18.098Z,1.42
2023-05-11T11:46:28.595Z,0.80
2023-05-11T11:49:31.442Z,1.30
2023-05-11T11:52:33.977Z,1.35
2023-05-11T11:55:46.509Z,1.25
2023-05-11T11:58:58.394Z,1.50
2023-05-11T12:02:02.111Z,1.80
2023-05-11T12:05:11.500Z,1.20
2023-05-11T12:08:16.092Z,1.73
2023-05-11T12:11:17.870Z,2.00
2023-05-11T12:14:20.154Z,2.33
2023-05-11T12:17:27.450Z,2.70
2023-05-11T12:20:29.179Z,1.60
2023-05-11T12:23:33.663Z,1.10
2023-05-11T12:26:37.276Z,1.27
2023-05-11T12:29:38.966Z,2.03
2023-05-11T12:32:42.049Z,1.92
2023-05-11T12:35:43.950Z,2.47
2023-05-11T12:38:46.554Z,3.05
2023-05-11T12:41:54.039Z,2.08
2023-05-11T12:44:55.882Z,1.92
2023-05-11T12:47:59.494Z,1.90
2023-05-11T12:51:01.251Z,2.00
2023-05-11T12:54:02.945Z,2.10
2023-05-11T12:57:05.998Z,2.38
2023-05-11T13:00:09.930Z,3.00
2023-05-11T13:03:13.140Z,2.80
2023-05-11T13:06:19.713Z,3.10
2023-05-11T15:11:45.550Z,12.40
2023-05-11T15:14:49.812Z,12.70
2023-05-11T15:17:51.691Z,13.98
2023-05-11T15:20:55.862Z,13.75
2023-05-11T15:24:00.374Z,13.63
2023-05-11T15:27:05.099Z,14.57
2023-05-11T15:30:08.014Z,13.77
2023-05-11T15:33:10.593Z,14.27
2023-05-11T15:36:14.335Z,13.30
2023-05-11T15:39:17.772Z,12.68
2023-05-11T15:42:23.615Z,14.05
2023-05-11T15:45:25.921Z,13.70
2023-05-11T15:48:30.131Z,13.43
2023-05-11T15:51:32.476Z,13.68
2023-05-11T15:54:35.970Z,13.00
2023-05-11T15:57:40.118Z,13.63
2023-05-11T16:00:44.607Z,14.02
2023-05-11T16:03:46.943Z,13.63
2023-05-11T16:06:48.795Z,13.18
2023-05-11T16:09:50.612Z,13.35
2023-05-11T16:12:53.818Z,13.38
2023-05-11T16:15:56.154Z,13.35
2023-05-11T16:19:01.501Z,12.48
2023-05-11T16:22:03.595Z,12.82
2023-05-11T16:25:05.833Z,12.60
2023-05-11T16:28:09.250Z,11.43
2023-05-11T16:31:11.543Z,11.85
2023-05-11T16:34:15.208Z,12.02
2023-05-11T16:37:17.012Z,11.45
2023-05-11T16:40:19.217Z,10.52
2023-05-11T16:43:23.103Z,10.57
2023-05-11T16:46:28.161Z,10.52
2023-05-11T16:49:33.022Z,9.95
2023-05-11T16:52:36.432Z,10.18
2023-05-11T16:55:39.562Z,9.43
2023-05-11T16:58:43.609Z,8.80
2023-05-11T17:01:46.365Z,9.60
2023-05-11T17:04:49.136Z,9.13
2023-05-11T17:07:52.375Z,9.02
2023-05-11T17:10:56.038Z,9.13
2023-05-11T17:14:03.334Z,8.27
2023-05-11T17:17:08.121Z,8.82
2023-05-11T17:20:11.846Z,8.95
2023-05-11T17:23:14.308Z,8.98
2023-05-11T17:26:16.801Z,9.02
2023-05-11T17:29:21.854Z,9.90
2023-05-11T17:32:24.673Z,9.15
2023-05-11T17:35:27.951Z,8.55
2023-05-11T17:38:30.471Z,8.35
2023-05-11T17:41:34.092Z,8.75
2023-05-11T17:44:41.082Z,9.30
2023-05-11T17:47:44.543Z,8.43
2023-05-11T17:50:47.061Z,7.97
2023-05-11T17:53:50.266Z,8.73
2023-05-11T17:56:52.860Z,9.13
2023-05-11T17:59:57.726Z,9.20
2023-05-11T18:03:00.656Z,8.68
2023-05-11T18:06:06.264Z,8.45
2023-05-11T18:09:10.515Z,9.18
2023-05-11T18:12:14.373Z,8.90
2023-05-11T18:15:18.306Z,9.30
2023-05-11T18:18:21.916Z,9.57
2023-05-11T18:21:24.984Z,9.55
2023-05-11T18:24:27.987Z,8.93
2023-05-11T18:27:31.958Z,8.90
2023-05-11T18:30:35.839Z,9.40
2023-05-11T18:33:41.601Z,8.45
2023-05-11T18:36:45.138Z,8.40
2023-05-11T18:39:47.648Z,9.25
2023-05-11T18:42:53.156Z,8.73
2023-05-11T18:45:57.033Z,9.07
2023-05-11T18:49:00.891Z,9.55
2023-05-11T18:52:04.531Z,8.82
2023-05-11T18:55:09.744Z,8.95
2023-05-11T18:58:12.772Z,8.65
2023-05-11T19:01:17.059Z,8.70
2023-05-11T19:04:19.981Z,8.40
2023-05-11T19:07:25.255Z,8.40
2023-05-11T19:10:28.063Z,8.63
2023-05-11T19:13:31.844Z,8.02
2023-05-11T19:16:35.971Z,8.65
2023-05-11T19:19:39.956Z,8.07
2023-05-11T19:22:42.719Z,8.20
2023-05-11T19:25:45.334Z,8.32
2023-05-11T19:28:47.931Z,7.60
2023-05-11T19:31:52.005Z,8.38
2023-05-11T19:34:54.988Z,9.00
2023-05-11T19:37:58.905Z,8.90
2023-05-11T19:41:01.927Z,9.23
2023-05-11T19:44:04.466Z,8.65
2023-05-11T19:47:08.745Z,8.82
2023-05-11T19:50:12.520Z,9.15
2023-05-11T19:53:15.019Z,9.18
2023-05-11T19:56:17.477Z,9.57
2023-05-11T19:59:19.922Z,8.77
2023-05-11T20:02:24.196Z,9.88
2023-05-11T20:05:27.758Z,9.80
2023-05-11T20:08:31.276Z,9.07
2023-05-11T20:11:33.785Z,8.98
2023-05-11T20:14:36.148Z,9.15
2023-05-11T20:17:40.034Z,9.82
2023-05-11T20:20:44.065Z,9.23
2023-05-11T20:23:46.573Z,9.25
2023-05-11T20:26:48.960Z,9.07
2023-05-11T20:29:51.391Z,9.40
2023-05-11T20:36:01.652Z,9.10
2023-05-11T20:39:04.762Z,9.35
2023-05-11T20:42:07.305Z,8.82
2023-05-11T20:45:11.053Z,9.60
2023-05-11T20:48:14.684Z,9.00
2023-05-11T20:51:16.826Z,9.20
2023-05-11T20:54:19.336Z,8.55
2023-05-11T20:57:21.409Z,7.70
2023-05-11T21:00:23.498Z,9.02
2023-05-11T21:03:27.062Z,8.40
2023-05-11T21:06:28.990Z,8.80
2023-05-11T21:09:34.434Z,8.52
2023-05-11T21:12:37.371Z,8.70
2023-05-11T21:15:39.157Z,8.93
2023-05-11T21:18:44.553Z,8.65
2023-05-11T21:21:47.760Z,8.23
2023-05-11T21:24:51.726Z,8.30
2023-05-11T21:27:53.440Z,8.52
2023-05-11T21:30:55.958Z,8.48
2023-05-11T21:34:01.953Z,8.82
2023-05-11T21:37:06.361Z,9.00
2023-05-11T21:40:10.765Z,8.93
2023-05-11T21:43:14.223Z,8.35
2023-05-11T21:46:15.912Z,9.40
2023-05-11T21:49:21.434Z,9.52
2023-05-11T21:52:24.184Z,9.82
2023-05-11T21:55:25.872Z,8.95
2023-05-11T21:58:27.776Z,9.73
2023-05-11T22:01:29.522Z,9.65
2023-05-11T22:04:33.086Z,9.75
2023-05-11T22:07:35.141Z,9.57
2023-05-11T22:10:36.960Z,9.60
2023-05-11T22:13:39.508Z,9.65
2023-05-11T22:16:41.568Z,9.00
2023-05-11T22:19:45.922Z,8.88
2023-05-11T22:22:48.647Z,9.10
2023-05-11T22:25:53.462Z,8.38
2023-05-11T22:28:57.741Z,8.40
2023-05-11T22:32:01.884Z,9.18
2023-05-11T22:35:06.079Z,8.35
2023-05-11T22:38:10.345Z,8.30
2023-05-11T22:41:12.176Z,8.70
2023-05-11T22:44:16.257Z,9.23
2023-05-11T22:47:17.940Z,9.10
2023-05-11T22:50:21.273Z,9.43
2023-05-11T22:53:23.187Z,9.27
2023-05-11T22:56:27.236Z,9.13
2023-05-11T22:59:29.107Z,9.18
2023-05-11T23:02:32.431Z,8.48
2023-05-11T23:05:38.160Z,8.75
2023-05-11T23:08:40.141Z,8.35
2023-05-11T23:11:42.130Z,8.82
2023-05-11T23:14:46.736Z,8.65
2023-05-11T23:17:51.478Z,9.00
2023-05-11T23:20:56.834Z,8.95
2023-05-11T23:23:59.205Z,9.30
2023-05-11T23:27:00.953Z,9.43
2023-05-11T23:30:04.532Z,9.93
2023-05-11T23:33:07.703Z,9.13
2023-05-11T23:36:13.711Z,9.10
2023-05-11T23:39:16.184Z,9.23
2023-05-11T23:42:18.232Z,8.82
2023-05-11T23:45:20.227Z,9.60
2023-05-11T23:48:22.426Z,9.00
2023-05-11T23:51:26.454Z,8.95
2023-05-11T23:54:28.165Z,9.13
2023-05-11T23:57:31.516Z,9.48
